Time;durP1;ratioP1;P1;durP2;ratioP2;P2;SDS_P1;SDS_P2;PMS_P1;PMS_P2;Temp;Humidity;BMP_temperature;BMP_pressure;BME280_temperature;BME280_humidity;BME280_pressure;Samples;Min_cycle;Max_cycle;Signal;HPM_P1;HPM_P2
2024/01/21 00:00:46;;;;;;;17.87;14.00;;;-2.00;99.90;;;;;;5074668;28;20177;-67
2024/01/21 00:03:12;;;;;;;20.47;14.27;;;-2.00;99.90;;;;;;5073680;28;20170;-65
2024/01/21 00:05:37;;;;;;;17.87;13.70;;;-1.90;99.90;;;;;;5063451;28;20712;-66
2024/01/21 00:08:03;;;;;;;17.20;13.77;;;-2.00;99.90;;;;;;5054801;28;20533;-66
2024/01/21 00:10:29;;;;;;;23.57;16.77;;;-1.90;99.90;;;;;;5054967;28;20166;-67
2024/01/21 00:12:54;;;;;;;22.20;15.27;;;-2.00;99.90;;;;;;5054653;28;20435;-67
2024/01/21 00:15:22;;;;;;;21.00;16.90;;;-2.20;99.90;;;;;;5062725;28;20197;-67
2024/01/21 00:17:48;;;;;;;21.20;16.40;;;-2.10;99.90;;;;;;5074558;28;20178;-67
2024/01/21 00:20:13;;;;;;;18.13;15.03;;;-2.10;99.90;;;;;;5056319;28;20473;-67
2024/01/21 00:22:40;;;;;;;17.80;15.40;;;-2.00;99.90;;;;;;5074563;28;20171;-67
2024/01/21 00:25:06;;;;;;;18.97;15.47;;;-2.00;99.90;;;;;;5067875;28;20174;-67
2024/01/21 00:27:32;;;;;;;18.23;14.70;;;-2.10;99.90;;;;;;5053992;28;20402;-67
2024/01/21 00:29:57;;;;;;;17.33;13.30;;;-2.10;99.90;;;;;;5054317;28;20428;-66
2024/01/21 00:32:23;;;;;;;24.87;16.07;;;-2.00;99.90;;;;;;5054009;28;20167;-68
2024/01/21 00:34:48;;;;;;;25.50;17.00;;;-2.00;99.90;;;;;;5057825;28;20574;-66
2024/01/21 00:37:14;;;;;;;17.60;14.00;;;-2.00;99.90;;;;;;5072837;28;20668;-66
2024/01/21 00:39:39;;;;;;;16.43;13.27;;;-2.00;99.90;;;;;;5053999;28;20302;-66
2024/01/21 00:42:05;;;;;;;20.80;15.10;;;-2.00;99.90;;;;;;5054209;28;20174;-66
2024/01/21 00:44:31;;;;;;;19.77;14.43;;;-2.10;99.90;;;;;;5055018;28;20300;-67
2024/01/21 00:46:56;;;;;;;16.00;13.00;;;-2.10;99.90;;;;;;5073479;28;20217;-66
2024/01/21 00:49:22;;;;;;;17.57;13.73;;;-2.10;99.90;;;;;;5074067;28;20245;-66
2024/01/21 00:51:47;;;;;;;17.30;13.50;;;-2.10;99.90;;;;;;5073478;28;20204;-68
2024/01/21 00:54:13;;;;;;;21.00;14.47;;;-2.10;99.90;;;;;;5073751;28;20166;-67
2024/01/21 00:56:38;;;;;;;15.33;12.70;;;-2.10;99.90;;;;;;5054684;28;20244;-67
2024/01/21 00:59:04;;;;;;;17.17;15.00;;;-2.00;99.90;;;;;;5056148;28;20537;-68
2024/01/21 01:01:30;;;;;;;18.40;13.47;;;-2.10;99.90;;;;;;5053811;28;20174;-67
2024/01/21 01:03:56;;;;;;;22.07;13.90;;;-2.20;99.90;;;;;;5053469;28;20190;-67
2024/01/21 01:06:21;;;;;;;18.40;12.67;;;-2.20;99.90;;;;;;5069441;28;20511;-65
2024/01/21 01:08:47;;;;;;;16.47;13.30;;;-2.20;99.90;;;;;;5073476;28;20165;-68
2024/01/21 01:11:12;;;;;;;16.50;12.17;;;-2.20;99.90;;;;;;5073705;28;20162;-67
2024/01/21 01:13:38;;;;;;;11.50;9.57;;;-2.20;99.90;;;;;;5073350;28;20174;-68
2024/01/21 01:16:06;;;;;;;14.40;11.47;;;-2.10;99.90;;;;;;5059454;28;20252;-67
2024/01/21 01:18:31;;;;;;;15.87;12.63;;;-2.10;99.90;;;;;;5053220;28;20258;-67
2024/01/21 01:20:57;;;;;;;13.60;10.70;;;-2.00;99.90;;;;;;5053079;28;20883;-68
2024/01/21 01:23:22;;;;;;;15.50;11.83;;;-2.10;99.90;;;;;;5053070;28;20176;-68
2024/01/21 01:25:48;;;;;;;14.00;10.47;;;-2.20;99.90;;;;;;5064289;28;20206;-65
2024/01/21 01:28:14;;;;;;;12.07;9.70;;;-2.10;99.90;;;;;;5073131;28;20207;-66
2024/01/21 01:30:39;;;;;;;11.20;9.73;;;-2.20;99.90;;;;;;5073262;28;20621;-67
2024/01/21 01:33:05;;;;;;;11.63;8.80;;;-2.20;99.90;;;;;;5073910;28;20160;-67
2024/01/21 01:35:30;;;;;;;11.60;8.97;;;-2.10;99.90;;;;;;5065595;28;20226;-67
2024/01/21 01:37:56;;;;;;;13.47;9.47;;;-1.90;99.90;;;;;;5053508;28;20186;-67
2024/01/21 01:40:22;;;;;;;11.83;9.70;;;-1.90;99.90;;;;;;5053066;28;20645;-67
2024/01/21 01:42:57;;;;;;;10.00;7.90;;;-2.00;99.90;;;;;;5053644;28;20195;-67
2024/01/21 01:45:23;;;;;;;10.63;8.90;;;-2.00;99.90;;;;;;5060204;28;20201;-67
2024/01/21 01:47:49;;;;;;;10.20;8.10;;;-2.00;99.90;;;;;;5073176;28;20407;-67
2024/01/21 01:50:16;;;;;;;10.97;8.53;;;-2.00;99.90;;;;;;5073111;28;20787;-68
2024/01/21 01:52:42;;;;;;;10.43;8.50;;;-1.90;99.90;;;;;;5049778;28;20422;-67
2024/01/21 01:55:08;;;;;;;10.53;9.43;;;-2.00;99.90;;;;;;5043429;28;20462;-67
2024/01/21 01:57:34;;;;;;;12.40;9.30;;;-2.10;99.90;;;;;;5072747;28;20887;-68
2024/01/21 02:00:00;;;;;;;10.40;8.90;;;-2.00;99.90;;;;;;5072649;28;20166;-68
2024/01/21 02:02:25;;;;;;;9.70;8.60;;;-2.10;99.90;;;;;;5072959;28;20534;-68
2024/01/21 02:04:51;;;;;;;10.23;7.93;;;-2.10;99.90;;;;;;5069724;28;20550;-67
2024/01/21 02:07:16;;;;;;;9.33;8.23;;;-2.10;99.90;;;;;;5052497;28;20198;-68
2024/01/21 02:09:42;;;;;;;9.73;8.20;;;-2.00;99.90;;;;;;5052433;28;20185;-68
2024/01/21 02:12:08;;;;;;;12.07;8.53;;;-2.00;99.90;;;;;;5052777;28;20170;-67
2024/01/21 02:14:34;;;;;;;12.60;9.37;;;-2.00;99.90;;;;;;5052880;28;20174;-67
2024/01/21 02:16:59;;;;;;;10.20;8.20;;;-2.00;99.90;;;;;;5054448;28;20988;-68
2024/01/21 02:19:27;;;;;;;10.60;8.50;;;-2.00;99.90;;;;;;5072798;28;20679;-67
2024/01/21 02:21:54;;;;;;;11.70;9.50;;;-2.10;99.90;;;;;;5072425;28;20166;-67
2024/01/21 02:24:19;;;;;;;9.67;7.53;;;-2.10;99.90;;;;;;5072543;28;20804;-67
2024/01/21 02:26:45;;;;;;;11.77;8.37;;;-2.10;99.90;;;;;;5057520;28;20471;-67
2024/01/21 02:29:11;;;;;;;11.83;8.70;;;-2.20;99.90;;;;;;5056712;28;20533;-67
2024/01/21 02:31:36;;;;;;;11.27;8.47;;;-2.20;99.90;;;;;;5056282;28;20170;-67
2024/01/21 02:34:02;;;;;;;10.60;7.93;;;-2.20;99.90;;;;;;5056290;28;20706;-68
2024/01/21 02:36:27;;;;;;;12.47;8.87;;;-2.10;99.90;;;;;;5071772;28;20198;-67
2024/01/21 02:38:53;;;;;;;9.43;8.43;;;-2.10;99.90;;;;;;5076077;28;20196;-67
2024/01/21 02:41:18;;;;;;;8.80;7.90;;;-2.10;99.90;;;;;;5076150;28;20299;-67
2024/01/21 02:43:44;;;;;;;10.47;9.30;;;-2.10;99.90;;;;;;5073488;28;20209;-67
2024/01/21 02:46:10;;;;;;;10.87;8.30;;;-2.10;99.90;;;;;;5068659;28;20313;-67
2024/01/21 02:48:36;;;;;;;10.17;7.73;;;-2.10;99.90;;;;;;5076296;28;20922;-67
2024/01/21 02:51:01;;;;;;;10.67;8.13;;;-2.10;99.90;;;;;;5057905;28;20660;-67
2024/01/21 02:53:27;;;;;;;8.60;6.97;;;-2.10;99.90;;;;;;5075865;28;20177;-67
2024/01/21 02:55:52;;;;;;;8.63;7.00;;;-2.20;99.90;;;;;;5065336;28;20222;-67
2024/01/21 02:58:18;;;;;;;8.37;6.80;;;-2.20;99.90;;;;;;5054414;28;20209;-67
2024/01/21 03:00:43;;;;;;;10.10;8.00;;;-2.40;99.90;;;;;;5055696;28;20541;-68
2024/01/21 03:03:10;;;;;;;8.63;6.97;;;-2.40;99.90;;;;;;5055442;28;20649;-68
2024/01/21 03:05:36;;;;;;;9.77;7.97;;;-2.40;99.90;;;;;;5066316;28;20272;-66
2024/01/21 03:08:02;;;;;;;11.67;7.97;;;-2.40;99.90;;;;;;5075659;28;20495;-68
2024/01/21 03:10:27;;;;;;;9.77;8.20;;;-2.40;99.90;;;;;;5075485;28;20461;-68
2024/01/21 03:12:53;;;;;;;8.83;7.53;;;-2.50;99.90;;;;;;5075773;28;20400;-68
2024/01/21 03:15:19;;;;;;;9.07;8.07;;;-2.40;99.90;;;;;;5069687;28;20681;-68
2024/01/21 03:17:44;;;;;;;12.33;8.47;;;-2.30;99.90;;;;;;5055394;28;20540;-68
2024/01/21 03:20:11;;;;;;;8.90;6.83;;;-2.30;99.90;;;;;;5055710;28;20167;-68
2024/01/21 03:22:36;;;;;;;10.60;7.60;;;-2.20;99.90;;;;;;5055313;28;20171;-68
2024/01/21 03:25:02;;;;;;;11.83;8.07;;;-2.20;99.90;;;;;;5058231;28;20408;-66
2024/01/21 03:27:28;;;;;;;9.50;7.97;;;-2.10;99.90;;;;;;5075119;28;20220;-66
2024/01/21 03:29:53;;;;;;;10.67;7.90;;;-2.10;99.90;;;;;;5075245;28;20175;-68
2024/01/21 03:32:19;;;;;;;9.13;7.63;;;-2.10;99.90;;;;;;5075163;28;20241;-68
2024/01/21 03:34:44;;;;;;;13.80;8.33;;;-2.10;99.90;;;;;;5074446;28;20170;-66
2024/01/21 03:37:10;;;;;;;13.80;8.97;;;-2.20;99.90;;;;;;5053645;28;20186;-68
2024/01/21 03:39:36;;;;;;;12.17;9.23;;;-2.20;99.90;;;;;;5054957;28;20170;-68
2024/01/21 03:42:01;;;;;;;12.63;9.63;;;-2.10;99.90;;;;;;5055484;28;20217;-68
2024/01/21 03:44:27;;;;;;;10.43;8.77;;;-2.10;99.90;;;;;;5054921;28;20536;-67
2024/01/21 03:46:52;;;;;;;10.53;8.90;;;-2.10;99.90;;;;;;5073471;28;20202;-67
2024/01/21 03:49:18;;;;;;;9.80;8.00;;;-2.10;99.90;;;;;;5075084;28;20173;-67
2024/01/21 03:51:43;;;;;;;10.37;9.30;;;-2.10;99.90;;;;;;5075108;28;20162;-68
2024/01/21 03:54:09;;;;;;;10.20;7.90;;;-2.10;99.90;;;;;;5074760;28;20170;-66
2024/01/21 03:56:34;;;;;;;9.47;8.53;;;-2.20;99.90;;;;;;5056804;28;20213;-68
2024/01/21 03:59:00;;;;;;;9.20;7.57;;;-2.30;99.90;;;;;;5055235;28;20276;-67
2024/01/21 04:01:25;;;;;;;11.13;8.20;;;-2.20;99.90;;;;;;5036806;28;20595;-66
2024/01/21 04:03:51;;;;;;;11.20;9.10;;;-2.20;99.90;;;;;;5054728;28;20193;-68
2024/01/21 04:06:17;;;;;;;11.43;8.23;;;-2.20;99.90;;;;;;5067259;28;20548;-65
2024/01/21 04:08:43;;;;;;;10.13;7.77;;;-2.20;99.90;;;;;;5056580;28;20169;-66
2024/01/21 04:11:08;;;;;;;10.20;7.83;;;-2.10;99.90;;;;;;5075153;28;20629;-67
2024/01/21 04:13:34;;;;;;;12.13;9.13;;;-2.10;99.90;;;;;;5074862;28;20392;-68
2024/01/21 04:15:59;;;;;;;10.60;7.40;;;-2.00;99.90;;;;;;5046088;28;20202;-68
2024/01/21 04:18:25;;;;;;;10.20;8.57;;;-1.90;99.90;;;;;;5054574;28;20220;-67
2024/01/21 04:20:50;;;;;;;10.03;8.07;;;-1.90;99.90;;;;;;5054255;28;20228;-67
2024/01/21 04:23:16;;;;;;;10.23;8.30;;;-1.80;99.90;;;;;;5054148;28;20197;-66
2024/01/21 04:25:41;;;;;;;12.23;8.60;;;-2.00;99.90;;;;;;5061858;28;20193;-67
2024/01/21 04:28:07;;;;;;;9.07;7.67;;;-2.00;99.90;;;;;;5074512;28;20170;-67
2024/01/21 04:30:33;;;;;;;8.80;7.23;;;-2.00;99.90;;;;;;5074269;28;20181;-67
2024/01/21 04:32:58;;;;;;;10.00;8.90;;;-2.00;99.90;;;;;;5073954;28;20547;-67
2024/01/21 04:35:24;;;;;;;11.87;7.40;;;-2.10;99.90;;;;;;5068735;28;20254;-67
2024/01/21 04:37:49;;;;;;;8.57;7.07;;;-2.10;99.90;;;;;;5053928;28;20175;-67
2024/01/21 04:40:15;;;;;;;10.27;7.53;;;-2.00;99.90;;;;;;5071930;28;20170;-67
2024/01/21 04:42:40;;;;;;;9.80;7.30;;;-2.00;99.90;;;;;;5074083;28;20204;-67
2024/01/21 04:45:07;;;;;;;8.50;7.40;;;-1.90;99.90;;;;;;5071059;28;20177;-67
2024/01/21 04:47:33;;;;;;;10.27;7.80;;;-1.90;99.90;;;;;;5053334;28;20189;-67
2024/01/21 04:49:58;;;;;;;8.70;6.90;;;-2.00;99.90;;;;;;5053944;28;20401;-67
2024/01/21 04:52:24;;;;;;;8.83;7.43;;;-2.00;99.90;;;;;;5053679;28;20175;-67
2024/01/21 04:54:49;;;;;;;8.87;6.73;;;-1.90;99.90;;;;;;5053847;28;20178;-68
2024/01/21 04:57:15;;;;;;;13.10;8.10;;;-2.10;99.90;;;;;;5073529;28;20276;-66
2024/01/21 04:59:40;;;;;;;8.57;6.47;;;-2.10;99.90;;;;;;5074050;28;20255;-66
2024/01/21 05:02:06;;;;;;;7.40;6.30;;;-2.00;99.90;;;;;;5073645;28;20166;-67
2024/01/21 05:04:31;;;;;;;9.10;6.50;;;-2.00;99.90;;;;;;5074371;28;20644;-67
2024/01/21 05:06:57;;;;;;;10.13;6.87;;;-1.90;99.90;;;;;;5050809;28;20271;-66
2024/01/21 05:09:22;;;;;;;13.10;7.20;;;-2.00;99.90;;;;;;5044276;28;20585;-67
2024/01/21 05:11:48;;;;;;;8.60;6.83;;;-1.90;99.90;;;;;;5044321;28;20581;-67
2024/01/21 05:14:13;;;;;;;8.83;7.17;;;-1.80;99.90;;;;;;5043999;28;20682;-68
2024/01/21 05:16:40;;;;;;;6.70;5.83;;;-1.80;99.90;;;;;;5025717;28;20202;-66
2024/01/21 05:19:05;;;;;;;11.90;7.70;;;-1.70;99.90;;;;;;5044228;28;20186;-68
2024/01/21 05:21:31;;;;;;;9.30;7.70;;;-1.80;99.90;;;;;;5043854;28;20813;-67
2024/01/21 05:23:57;;;;;;;11.63;8.10;;;-1.80;99.90;;;;;;5043638;28;20273;-67
2024/01/21 05:26:23;;;;;;;9.40;8.30;;;-1.80;99.90;;;;;;5044303;28;21138;-67
2024/01/21 05:28:48;;;;;;;9.47;7.27;;;-1.90;99.90;;;;;;5043766;28;20834;-67
2024/01/21 05:31:14;;;;;;;9.00;7.40;;;-1.90;99.90;;;;;;5043533;28;20180;-68
2024/01/21 05:33:40;;;;;;;8.63;7.27;;;-1.90;99.90;;;;;;5043616;28;20181;-67
2024/01/21 05:36:06;;;;;;;9.77;7.40;;;-1.80;99.90;;;;;;5043446;28;20204;-67
2024/01/21 05:38:32;;;;;;;8.00;6.70;;;-1.80;99.90;;;;;;5043299;28;20428;-67
2024/01/21 05:40:58;;;;;;;9.40;7.53;;;-1.70;99.90;;;;;;5043322;28;20422;-68
2024/01/21 05:43:23;;;;;;;10.20;8.13;;;-1.70;99.90;;;;;;5043243;28;20677;-68
2024/01/21 05:45:49;;;;;;;10.40;8.70;;;-1.70;99.90;;;;;;5043184;28;20225;-67
2024/01/21 05:48:14;;;;;;;8.10;6.80;;;-1.80;99.90;;;;;;5042870;28;20178;-68
2024/01/21 05:50:40;;;;;;;7.80;7.00;;;-1.90;99.90;;;;;;5043138;28;20639;-67
2024/01/21 05:53:06;;;;;;;8.00;6.90;;;-1.80;99.90;;;;;;5043294;28;20641;-68
2024/01/21 05:55:32;;;;;;;9.40;6.90;;;-1.80;99.90;;;;;;5043272;28;20241;-67
2024/01/21 05:57:58;;;;;;;10.07;8.03;;;-1.90;99.90;;;;;;5043482;28;20416;-68
2024/01/21 06:00:24;;;;;;;8.80;7.90;;;-1.80;99.90;;;;;;5026573;28;20954;-67
2024/01/21 06:02:51;;;;;;;9.77;7.97;;;-1.90;99.90;;;;;;5047337;28;20198;-66
2024/01/21 06:05:17;;;;;;;7.97;7.17;;;-2.00;99.90;;;;;;5047309;28;20182;-67
2024/01/21 06:07:43;;;;;;;10.90;7.60;;;-2.00;99.90;;;;;;5047276;28;20403;-69
2024/01/21 06:10:09;;;;;;;9.80;6.30;;;-2.00;99.90;;;;;;5029502;28;20648;-66
2024/01/21 06:12:36;;;;;;;11.80;7.63;;;-1.80;99.90;;;;;;5047098;28;20412;-69
2024/01/21 06:15:01;;;;;;;7.77;6.37;;;-1.80;99.90;;;;;;5046848;28;20409;-68
2024/01/21 06:17:27;;;;;;;10.60;7.60;;;-1.80;99.90;;;;;;5047023;28;20898;-69
2024/01/21 06:19:52;;;;;;;8.23;7.43;;;-1.80;99.90;;;;;;5046834;28;20503;-67
2024/01/21 06:22:18;;;;;;;8.90;7.33;;;-1.80;99.90;;;;;;5047050;28;20183;-68
2024/01/21 06:24:43;;;;;;;8.80;6.80;;;-1.90;99.90;;;;;;5046903;28;20186;-67
2024/01/21 06:27:09;;;;;;;10.87;8.30;;;-2.00;99.90;;;;;;5047211;28;20212;-68
2024/01/21 06:29:34;;;;;;;11.53;8.20;;;-2.10;99.90;;;;;;5047481;28;20254;-67
2024/01/21 06:32:00;;;;;;;8.50;7.47;;;-2.10;99.90;;;;;;5046590;28;20175;-67
2024/01/21 06:34:26;;;;;;;11.30;6.70;;;-2.10;99.90;;;;;;5028962;28;20257;-67
2024/01/21 06:36:51;;;;;;;9.37;8.17;;;-2.10;99.90;;;;;;5052184;28;20218;-67
2024/01/21 06:39:17;;;;;;;10.13;7.10;;;-2.10;99.90;;;;;;5056386;28;20503;-67
2024/01/21 06:41:42;;;;;;;8.97;7.20;;;-2.10;99.90;;;;;;5056199;28;20220;-67
2024/01/21 06:44:08;;;;;;;9.43;6.70;;;-2.10;99.90;;;;;;5056223;28;20578;-67
2024/01/21 06:46:34;;;;;;;9.30;7.27;;;-2.10;99.90;;;;;;5068440;28;20201;-67
2024/01/21 06:48:59;;;;;;;8.37;7.13;;;-2.10;99.90;;;;;;5076036;28;20542;-67
2024/01/21 06:51:32;;;;;;;10.37;7.70;;;-2.10;99.90;;;;;;5075839;28;20179;-67
2024/01/21 06:54:00;;;;;;;7.83;7.00;;;-2.00;99.90;;;;;;5076173;28;20617;-68
2024/01/21 06:56:26;;;;;;;8.87;6.80;;;-2.00;99.90;;;;;;5064085;28;20490;-68
2024/01/21 06:58:53;;;;;;;8.90;7.17;;;-2.00;99.90;;;;;;5055525;28;20405;-67
2024/01/21 07:01:18;;;;;;;7.27;6.57;;;-2.00;99.90;;;;;;5056058;28;20493;-66
2024/01/21 07:03:45;;;;;;;9.27;7.67;;;-1.90;99.90;;;;;;5055758;28;20480;-66
2024/01/21 07:06:11;;;;;;;9.37;7.40;;;-2.00;99.90;;;;;;5064806;28;20194;-66
2024/01/21 07:08:37;;;;;;;10.33;7.67;;;-1.90;99.90;;;;;;5075796;28;20769;-66
2024/01/21 07:11:07;;;;;;;8.13;7.10;;;-2.00;99.90;;;;;;5075821;28;20154;-66
2024/01/21 07:13:32;;;;;;;10.33;8.07;;;-1.90;99.90;;;;;;5057595;28;20404;-68
2024/01/21 07:15:58;;;;;;;8.87;7.40;;;-1.90;99.90;;;;;;5068843;28;20555;-67
2024/01/21 07:18:23;;;;;;;10.57;8.80;;;-1.90;99.90;;;;;;5056910;28;20261;-67
2024/01/21 07:20:49;;;;;;;8.63;7.10;;;-2.00;99.90;;;;;;5037535;28;20174;-67
2024/01/21 07:23:14;;;;;;;10.13;7.50;;;-1.90;99.90;;;;;;5055954;28;20174;-67
2024/01/21 07:25:40;;;;;;;12.00;8.47;;;-1.90;99.90;;;;;;5059994;28;20190;-67
2024/01/21 07:28:06;;;;;;;13.10;7.67;;;-1.90;99.90;;;;;;5075271;28;20197;-68
2024/01/21 07:30:32;;;;;;;9.73;8.13;;;-1.70;99.90;;;;;;5075230;28;20169;-67
2024/01/21 07:32:57;;;;;;;11.07;9.17;;;-1.60;99.90;;;;;;5075438;28;20394;-67
2024/01/21 07:35:23;;;;;;;9.13;8.07;;;-1.50;99.90;;;;;;5073034;28;20178;-68
2024/01/21 07:37:48;;;;;;;8.80;7.87;;;-1.40;99.90;;;;;;5042794;28;20633;-67
2024/01/21 07:40:14;;;;;;;10.53;9.53;;;-1.30;99.90;;;;;;5043438;28;20539;-69
2024/01/21 07:42:39;;;;;;;11.53;9.67;;;-1.40;99.90;;;;;;5049247;28;20542;-69
2024/01/21 07:45:06;;;;;;;9.13;7.93;;;-1.50;99.90;;;;;;5054851;28;20653;-67
2024/01/21 07:47:31;;;;;;;11.70;9.50;;;-1.50;99.90;;;;;;5056862;28;20198;-67
2024/01/21 07:49:57;;;;;;;9.70;8.67;;;-1.30;99.90;;;;;;5037499;28;20414;-67
2024/01/21 07:52:22;;;;;;;12.17;9.50;;;-1.20;99.90;;;;;;5035112;28;20167;-68
2024/01/21 07:54:48;;;;;;;10.03;8.90;;;-1.00;99.90;;;;;;5036728;28;20212;-66
2024/01/21 07:57:14;;;;;;;11.63;10.10;;;-0.90;99.90;;;;;;5051656;28;20198;-68
2024/01/21 07:59:39;;;;;;;16.20;10.80;;;-0.70;99.90;;;;;;5075158;28;20181;-67
2024/01/21 08:02:05;;;;;;;29.67;18.07;;;-0.50;99.90;;;;;;5056639;28;20173;-66
2024/01/21 08:04:31;;;;;;;14.00;11.07;;;-0.40;99.90;;;;;;5075041;28;20189;-68
2024/01/21 08:06:56;;;;;;;18.43;12.53;;;-0.20;99.90;;;;;;5059669;28;20456;-67
2024/01/21 08:09:22;;;;;;;15.90;11.90;;;0.00;99.90;;;;;;5054737;28;20169;-68
2024/01/21 08:11:47;;;;;;;17.03;13.83;;;0.10;99.90;;;;;;5054328;28;20166;-68
2024/01/21 08:14:13;;;;;;;15.70;12.37;;;0.20;99.90;;;;;;5053080;28;20202;-68
2024/01/21 08:16:39;;;;;;;22.80;16.73;;;0.30;99.90;;;;;;5058240;28;20196;-68
2024/01/21 08:19:04;;;;;;;29.63;22.10;;;0.40;99.90;;;;;;5056279;28;20185;-67
2024/01/21 08:21:30;;;;;;;18.10;14.40;;;0.50;99.90;;;;;;5074451;28;20252;-68
2024/01/21 08:23:56;;;;;;;53.30;41.13;;;0.60;99.90;;;;;;5073444;28;20162;-67
2024/01/21 08:26:21;;;;;;;16.87;12.27;;;0.40;99.90;;;;;;5065150;28;20198;-67
2024/01/21 08:28:47;;;;;;;19.97;17.07;;;0.20;99.90;;;;;;5054244;28;20171;-66
2024/01/21 08:31:14;;;;;;;10.60;9.27;;;0.30;99.90;;;;;;5054403;28;20656;-68
2024/01/21 08:33:40;;;;;;;17.73;15.80;;;0.40;99.90;;;;;;5065190;28;20563;-68
2024/01/21 08:36:05;;;;;;;11.30;10.10;;;0.60;99.90;;;;;;5066578;28;20429;-66
2024/01/21 08:38:31;;;;;;;12.87;10.83;;;0.90;99.90;;;;;;5054212;28;20653;-68
2024/01/21 08:40:57;;;;;;;12.50;10.77;;;1.10;99.90;;;;;;5053873;28;20413;-67
2024/01/21 08:43:22;;;;;;;12.87;10.33;;;1.20;99.90;;;;;;5054155;28;20171;-68
2024/01/21 08:45:48;;;;;;;12.07;10.83;;;1.40;99.90;;;;;;5058096;28;20684;-68
2024/01/21 08:48:13;;;;;;;14.90;12.07;;;1.50;99.90;;;;;;5074132;28;20632;-68
2024/01/21 08:50:39;;;;;;;14.50;12.47;;;1.60;99.90;;;;;;5073567;28;20249;-67
2024/01/21 08:53:04;;;;;;;15.83;13.77;;;1.60;99.90;;;;;;5073801;28;20585;-67
2024/01/21 08:55:30;;;;;;;15.90;14.03;;;1.50;99.90;;;;;;5071777;28;20204;-66
2024/01/21 08:57:55;;;;;;;18.43;13.40;;;1.50;99.90;;;;;;5035932;28;20173;-66
2024/01/21 09:00:21;;;;;;;13.77;12.17;;;1.60;99.90;;;;;;5053891;28;20193;-66
2024/01/21 09:02:47;;;;;;;14.47;12.37;;;1.70;99.90;;;;;;5053465;28;20548;-67
2024/01/21 09:05:13;;;;;;;13.67;12.27;;;1.80;99.90;;;;;;5053520;28;20625;-68
2024/01/21 09:07:39;;;;;;;12.90;11.50;;;1.90;99.90;;;;;;5072960;28;20202;-68
2024/01/21 09:10:05;;;;;;;12.70;10.80;;;1.90;99.90;;;;;;5070015;28;20537;-67
2024/01/21 09:12:31;;;;;;;10.80;9.70;;;1.90;99.90;;;;;;5073859;28;20621;-68
2024/01/21 09:14:57;;;;;;;11.90;10.70;;;2.00;99.90;;;;;;5073658;28;20398;-68
2024/01/21 09:17:22;;;;;;;14.03;12.27;;;2.10;99.90;;;;;;5055986;28;20428;-68
2024/01/21 09:19:48;;;;;;;13.57;11.93;;;2.20;99.90;;;;;;5053490;28;20535;-68
2024/01/21 09:22:13;;;;;;;13.47;11.30;;;2.20;99.90;;;;;;5053945;28;20177;-67
2024/01/21 09:24:39;;;;;;;13.30;11.97;;;2.20;99.90;;;;;;5035687;28;20170;-67
2024/01/21 09:27:05;;;;;;;13.97;12.10;;;2.20;99.90;;;;;;5067496;28;20195;-67
2024/01/21 09:29:30;;;;;;;15.50;13.37;;;2.30;99.90;;;;;;5073180;28;20666;-67
2024/01/21 09:31:57;;;;;;;16.37;14.50;;;2.30;99.90;;;;;;5073205;28;20506;-66
2024/01/21 09:34:22;;;;;;;18.10;13.87;;;2.40;99.90;;;;;;5073074;28;20711;-67
2024/01/21 09:36:48;;;;;;;13.23;11.80;;;2.50;99.90;;;;;;5060661;28;20429;-67
2024/01/21 09:39:14;;;;;;;13.80;11.67;;;2.50;99.90;;;;;;5053097;28;20216;-67
2024/01/21 09:41:49;;;;;;;9.40;7.87;;;2.30;99.90;;;;;;5053027;28;20405;-67
2024/01/21 09:44:19;;;;;;;9.43;7.33;;;2.30;99.90;;;;;;5053300;28;20162;-67
2024/01/21 09:46:56;;;;;;;8.60;7.80;;;2.40;99.90;;;;;;5047034;28;20479;-66
2024/01/21 09:49:22;;;;;;;8.90;8.00;;;2.50;99.90;;;;;;5041873;28;20883;-67
2024/01/21 09:51:49;;;;;;;9.70;8.37;;;2.70;99.90;;;;;;5033064;28;20422;-67
2024/01/21 09:54:15;;;;;;;11.47;7.77;;;2.90;99.90;;;;;;5032982;28;20972;-67
2024/01/21 09:56:41;;;;;;;8.77;7.73;;;3.00;99.90;;;;;;5054716;28;20518;-67
2024/01/21 09:59:09;;;;;;;9.30;7.63;;;3.30;99.90;;;;;;5072914;28;20400;-65
2024/01/21 10:01:37;;;;;;;9.17;6.83;;;3.50;99.90;;;;;;5072922;28;20404;-67
2024/01/21 10:04:03;;;;;;;7.87;7.00;;;3.60;99.90;;;;;;5068896;28;20433;-66
2024/01/21 10:06:28;;;;;;;8.77;6.93;;;3.80;99.90;;;;;;5072633;28;20498;-67
2024/01/21 10:09:17;;;;;;;9.40;7.50;;;3.80;99.90;;;;;;5073133;28;20446;-66
2024/01/21 10:11:46;;;;;;;10.17;8.67;;;4.00;99.90;;;;;;5073261;28;20147;-67
2024/01/21 10:14:12;;;;;;;10.50;9.30;;;4.00;99.90;;;;;;5071211;28;20454;-66
2024/01/21 10:16:44;;;;;;;10.07;9.07;;;4.00;99.90;;;;;;5052634;28;20425;-67
2024/01/21 10:19:16;;;;;;;11.07;8.90;;;4.20;99.90;;;;;;5052562;28;20171;-66
2024/01/21 10:21:42;;;;;;;13.20;9.40;;;4.50;99.90;;;;;;5052782;28;20452;-67
2024/01/21 10:24:10;;;;;;;9.97;8.97;;;4.50;99.90;;;;;;5053923;28;20437;-68
2024/01/21 10:26:42;;;;;;;11.40;9.30;;;4.60;99.90;;;;;;5073307;28;20216;-65
2024/01/21 10:29:07;;;;;;;10.60;9.50;;;4.60;99.90;;;;;;5073928;28;20400;-67
2024/01/21 10:31:33;;;;;;;11.20;9.00;;;4.20;99.90;;;;;;5073082;28;20457;-68
2024/01/21 10:34:02;;;;;;;12.80;9.30;;;4.50;99.90;;;;;;5055708;28;20565;-68
2024/01/21 10:36:33;;;;;;;7.23;5.90;;;4.70;99.90;;;;;;5032596;28;20431;-68
2024/01/21 10:39:02;;;;;;;8.40;6.90;;;5.00;99.90;;;;;;5032520;28;20418;-68
2024/01/21 10:41:32;;;;;;;6.40;5.73;;;5.40;99.90;;;;;;5032541;28;20399;-68
2024/01/21 10:43:59;;;;;;;6.87;6.17;;;5.30;99.90;;;;;;5033022;28;20913;-68
2024/01/21 10:46:25;;;;;;;7.63;6.27;;;5.20;99.90;;;;;;5055100;28;21057;-66
2024/01/21 10:48:55;;;;;;;6.53;5.83;;;5.30;99.90;;;;;;5076636;28;20445;-68
2024/01/21 10:51:21;;;;;;;5.77;5.17;;;5.70;99.90;;;;;;5076031;28;20410;-68
2024/01/21 10:53:53;;;;;;;7.20;6.37;;;5.90;99.70;;;;;;5076151;28;20877;-68
2024/01/21 10:56:19;;;;;;;7.50;6.27;;;6.20;99.50;;;;;;5057210;28;20437;-67
2024/01/21 10:58:47;;;;;;;5.30;4.80;;;6.20;98.60;;;;;;5056116;28;20412;-67
2024/01/21 11:01:14;;;;;;;6.27;5.67;;;6.40;98.70;;;;;;5055969;28;20402;-66
2024/01/21 11:03:40;;;;;;;6.57;4.47;;;6.50;97.80;;;;;;5055898;28;20494;-67
2024/01/21 11:06:08;;;;;;;6.87;5.30;;;6.40;97.30;;;;;;5072716;28;20537;-67
2024/01/21 11:08:35;;;;;;;7.27;5.80;;;6.60;97.80;;;;;;5075973;28;20164;-67
2024/01/21 11:11:11;;;;;;;6.70;6.00;;;6.90;97.60;;;;;;5075569;28;20480;-67
2024/01/21 11:13:46;;;;;;;5.80;5.27;;;7.20;97.00;;;;;;5072349;28;20422;-67
2024/01/21 11:16:30;;;;;;;6.83;6.13;;;7.50;96.90;;;;;;5057868;28;20518;-67
2024/01/21 11:19:03;;;;;;;8.07;6.20;;;7.90;96.40;;;;;;5055969;28;20743;-67
2024/01/21 11:21:29;;;;;;;7.80;5.67;;;7.60;95.50;;;;;;5055564;28;20408;-67
2024/01/21 11:24:14;;;;;;;14.10;6.90;;;7.00;95.90;;;;;;5055413;28;20455;-67
2024/01/21 11:26:42;;;;;;;12.30;7.00;;;6.90;96.20;;;;;;5036267;28;20977;-67
2024/01/21 11:29:27;;;;;;;11.13;7.00;;;6.70;95.90;;;;;;5035492;28;20487;-67
2024/01/21 11:31:58;;;;;;;9.73;6.30;;;6.90;96.20;;;;;;5035791;28;20393;-66
2024/01/21 11:34:24;;;;;;;7.37;6.13;;;6.70;96.90;;;;;;5039934;28;20830;-66
2024/01/21 11:36:51;;;;;;;7.53;5.63;;;6.60;96.50;;;;;;5075431;28;20462;-65
2024/01/21 11:39:19;;;;;;;6.70;6.03;;;6.70;97.10;;;;;;5075652;28;20422;-66
2024/01/21 11:41:46;;;;;;;5.83;5.30;;;7.00;97.20;;;;;;5075401;28;20413;-67
2024/01/21 11:44:22;;;;;;;6.10;5.50;;;7.10;96.20;;;;;;5074402;28;20414;-68
2024/01/21 11:46:49;;;;;;;6.90;5.63;;;7.40;96.00;;;;;;5036846;28;20479;-67
2024/01/21 11:49:15;;;;;;;8.03;6.13;;;7.50;96.10;;;;;;5054943;28;20410;-67
2024/01/21 11:51:41;;;;;;;8.43;7.07;;;7.20;97.30;;;;;;5051426;28;20401;-67
2024/01/21 11:54:08;;;;;;;8.73;7.83;;;7.20;96.70;;;;;;5054760;28;20400;-67
2024/01/21 11:56:36;;;;;;;13.33;9.40;;;7.00;96.40;;;;;;5073670;28;20481;-67
2024/01/21 11:59:08;;;;;;;11.20;7.63;;;7.10;96.90;;;;;;5073419;28;20407;-67
2024/01/21 12:01:34;;;;;;;14.53;9.50;;;7.50;96.80;;;;;;5074859;28;20754;-67
2024/01/21 12:04:01;;;;;;;12.40;9.43;;;7.40;96.70;;;;;;5074707;28;20404;-67
2024/01/21 12:06:27;;;;;;;10.77;8.67;;;7.80;95.90;;;;;;5055513;28;20458;-67
2024/01/21 12:08:53;;;;;;;12.23;8.80;;;8.00;96.30;;;;;;5054795;28;20758;-68
2024/01/21 12:11:18;;;;;;;11.73;8.77;;;8.40;96.10;;;;;;5055111;28;20403;-68
2024/01/21 12:13:44;;;;;;;9.03;8.13;;;8.90;96.30;;;;;;5054328;28;20169;-68
2024/01/21 12:16:11;;;;;;;11.30;9.10;;;9.20;96.30;;;;;;5070678;28;20246;-68
2024/01/21 12:18:41;;;;;;;10.87;9.20;;;10.40;95.40;;;;;;5074249;28;20219;-68
2024/01/21 12:21:07;;;;;;;11.20;8.90;;;11.60;93.40;;;;;;5074590;28;20395;-67
2024/01/21 12:23:33;;;;;;;11.20;8.90;;;13.50;91.00;;;;;;5074210;28;20406;-67
2024/01/21 12:25:59;;;;;;;9.37;7.40;;;15.20;83.60;;;;;;5059433;28;21010;-67
2024/01/21 12:28:25;;;;;;;7.47;5.80;;;16.20;72.50;;;;;;5054363;28;20163;-67
2024/01/21 12:30:50;;;;;;;6.83;6.07;;;15.90;67.70;;;;;;5071475;28;20718;-67
2024/01/21 12:33:16;;;;;;;7.10;4.77;;;15.80;63.90;;;;;;5074069;28;20178;-67
2024/01/21 12:35:45;;;;;;;16.40;9.33;;;15.30;63.00;;;;;;5061941;28;20194;-67